Time;durP1;ratioP1;P1;durP2;ratioP2;P2;SDS_P1;SDS_P2;PMS_P1;PMS_P2;Temp;Humidity;BMP_temperature;BMP_pressure;BME280_temperature;BME280_humidity;BME280_pressure;Samples;Min_cycle;Max_cycle;Signal;HPM_P1;HPM_P2
2021/12/01 00:02:09;;;;;;;0.70;0.70;;;;;;;;;;5074569;28;20029;-65
2021/12/01 00:04:35;;;;;;;0.70;0.70;;;5.50;99.90;;;;;;5055010;28;20162;-66
2021/12/01 00:07:01;;;;;;;0.88;0.80;;;5.50;99.90;;;;;;5053842;28;20080;-65
2021/12/01 00:09:26;;;;;;;3.17;0.90;;;5.10;99.90;;;;;;5080174;28;20028;-65
2021/12/01 00:11:52;;;;;;;0.70;0.70;;;5.50;99.90;;;;;;5104660;28;20091;-65
2021/12/01 00:14:18;;;;;;;1.45;0.70;;;4.40;99.90;;;;;;5103325;28;20021;-65
2021/12/01 00:16:43;;;;;;;0.65;0.65;;;5.80;99.90;;;;;;5093624;28;20478;-65
2021/12/01 00:19:09;;;;;;;0.75;0.75;;;5.80;99.90;;;;;;5078424;28;20025;-65
2021/12/01 00:21:35;;;;;;;0.88;0.80;;;5.60;99.90;;;;;;5062463;28;20494;-65
2021/12/01 00:24:00;;;;;;;1.30;0.80;;;5.30;99.90;;;;;;5055503;28;20056;-65
2021/12/01 00:26:26;;;;;;;1.45;1.35;;;5.70;99.90;;;;;;5054377;28;20025;-65
2021/12/01 00:28:52;;;;;;;0.73;0.73;;;;;;;;;;5082335;28;20115;-65
2021/12/01 00:31:18;;;;;;;0.70;0.70;;;5.60;99.90;;;;;;5094577;28;20061;-65
2021/12/01 00:33:44;;;;;;;0.95;0.77;;;5.60;99.90;;;;;;5093223;28;20046;-65
2021/12/01 00:36:13;;;;;;;4.35;1.00;;;5.80;99.90;;;;;;5086949;28;20506;-64
2021/12/01 00:38:41;;;;;;;0.52;0.50;;;4.80;99.90;;;;;;5094686;28;20120;-65
2021/12/01 00:41:08;;;;;;;0.88;0.80;;;5.30;99.90;;;;;;5093130;28;20412;-65
2021/12/01 00:43:36;;;;;;;0.68;0.68;;;5.10;99.90;;;;;;5094272;28;20481;-66
2021/12/01 00:46:11;;;;;;;0.60;0.60;;;5.60;99.90;;;;;;5093779;28;20024;-65
2021/12/01 00:48:36;;;;;;;0.57;0.52;;;5.20;99.90;;;;;;5080295;28;20516;-65
2021/12/01 00:51:03;;;;;;;0.50;0.50;;;5.30;99.90;;;;;;5073725;28;20036;-65
2021/12/01 00:53:29;;;;;;;0.63;0.60;;;5.30;99.90;;;;;;5074239;28;20020;-65
2021/12/01 00:55:54;;;;;;;1.02;0.70;;;5.40;99.90;;;;;;5093762;28;20409;-65
2021/12/01 00:58:20;;;;;;;0.85;0.85;;;;;;;;;;5094008;28;20051;-65
2021/12/01 01:00:49;;;;;;;0.50;0.50;;;5.80;99.90;;;;;;5085683;28;20107;-65
2021/12/01 01:03:16;;;;;;;1.55;0.85;;;5.80;99.90;;;;;;5094075;28;20042;-66
2021/12/01 01:05:42;;;;;;;0.70;0.70;;;4.90;99.90;;;;;;5093244;28;20028;-65
2021/12/01 01:08:08;;;;;;;0.63;0.63;;;5.70;99.90;;;;;;5092129;28;20039;-65
2021/12/01 01:18:41;;;;;;;0.60;0.60;;;5.80;99.90;;;;;;5085388;28;20055;-65
2021/12/01 01:21:08;;;;;;;0.50;0.50;;;5.80;99.90;;;;;;5058705;28;20029;-66
2021/12/01 01:23:35;;;;;;;0.40;0.40;;;5.50;99.90;;;;;;5069093;28;20025;-66
2021/12/01 01:26:03;;;;;;;0.50;0.50;;;5.00;99.90;;;;;;5059139;28;20029;-65
2021/12/01 01:28:29;;;;;;;0.60;0.60;;;6.20;99.90;;;;;;5084373;28;20024;-65
2021/12/01 01:30:55;;;;;;;0.50;0.50;;;5.40;99.90;;;;;;5093391;28;20571;-65
2021/12/01 01:33:21;;;;;;;0.50;0.50;;;6.00;99.90;;;;;;5091842;28;20035;-65
2021/12/01 01:35:47;;;;;;;0.50;0.50;;;5.70;99.90;;;;;;5092494;28;20401;-65
2021/12/01 01:38:13;;;;;;;0.50;0.50;;;4.90;99.90;;;;;;5093359;28;20020;-66
2021/12/01 01:40:39;;;;;;;0.50;0.50;;;5.30;99.90;;;;;;5084902;28;20557;-67
2021/12/01 01:43:06;;;;;;;0.50;0.50;;;6.20;99.90;;;;;;5093262;28;20028;-67
2021/12/01 01:45:32;;;;;;;0.50;0.50;;;5.30;99.90;;;;;;5092471;28;20482;-66
2021/12/01 01:48:06;;;;;;;0.50;0.50;;;5.20;99.90;;;;;;5091631;28;20040;-66
2021/12/01 01:50:37;;;;;;;0.50;0.50;;;6.10;99.90;;;;;;5053189;28;20111;-66
2021/12/01 01:53:17;;;;;;;0.40;0.40;;;5.90;99.90;;;;;;5055159;28;20025;-66
2021/12/01 01:55:45;;;;;;;0.40;0.40;;;5.80;99.90;;;;;;5092312;28;20024;-66
2021/12/01 01:58:12;;;;;;;0.47;0.47;;;6.30;99.90;;;;;;5076022;28;20020;-66
2021/12/01 02:00:45;;;;;;;1.85;0.60;;;6.40;99.90;;;;;;5085267;28;20028;-66
2021/12/01 02:03:15;;;;;;;1.95;0.65;;;5.80;99.90;;;;;;5092841;28;20512;-66
2021/12/01 02:05:41;;;;;;;0.50;0.50;;;5.30;99.90;;;;;;5089313;28;20553;-67
2021/12/01 02:08:15;;;;;;;0.50;0.50;;;4.90;99.90;;;;;;5086427;28;20040;-67
2021/12/01 02:10:51;;;;;;;1.67;0.60;;;5.10;99.90;;;;;;5074337;28;20028;-67
2021/12/01 02:13:19;;;;;;;0.57;0.57;;;5.60;99.90;;;;;;5083988;28;20024;-66
2021/12/01 02:15:46;;;;;;;0.60;0.60;;;5.30;99.90;;;;;;5072740;28;20052;-65
2021/12/01 02:18:12;;;;;;;0.60;0.60;;;5.60;99.90;;;;;;5073069;28;20032;-67
2021/12/01 02:20:39;;;;;;;0.50;0.50;;;5.70;99.90;;;;;;5086752;28;20032;-65
2021/12/01 02:23:05;;;;;;;0.57;0.57;;;4.90;99.90;;;;;;5092460;28;20095;-67
2021/12/01 02:25:30;;;;;;;0.50;0.50;;;5.70;99.90;;;;;;5090265;28;20024;-66
2021/12/01 02:27:56;;;;;;;0.60;0.60;;;5.90;99.90;;;;;;5065708;28;20085;-66
2021/12/01 02:30:23;;;;;;;0.47;0.47;;;5.40;99.90;;;;;;5052186;28;20037;-66
2021/12/01 02:32:52;;;;;;;1.00;0.60;;;5.90;99.90;;;;;;5055437;28;20029;-66
2021/12/01 02:35:18;;;;;;;0.60;0.60;;;5.70;99.90;;;;;;5073400;28;20036;-66
2021/12/01 02:37:44;;;;;;;0.73;0.60;;;5.60;99.90;;;;;;5098747;28;20086;-66
2021/12/01 02:40:10;;;;;;;0.45;0.45;;;6.10;99.90;;;;;;5087649;28;20478;-66
2021/12/01 02:42:36;;;;;;;0.57;0.57;;;5.90;99.90;;;;;;5053067;28;20056;-66
2021/12/01 02:45:03;;;;;;;0.40;0.40;;;6.10;99.90;;;;;;5050997;28;20028;-66
2021/12/01 02:47:29;;;;;;;0.60;0.60;;;5.30;99.90;;;;;;5078941;28;20446;-66
2021/12/01 02:49:55;;;;;;;2.15;0.60;;;5.80;99.90;;;;;;5091816;28;20107;-66
2021/12/01 02:52:24;;;;;;;0.50;0.50;;;4.90;99.90;;;;;;5090608;28;20047;-66
2021/12/01 02:54:50;;;;;;;0.90;0.43;;;5.70;99.90;;;;;;5091354;28;20020;-67
2021/12/01 02:57:16;;;;;;;0.50;0.50;;;6.30;99.90;;;;;;5091554;28;20042;-67
2021/12/01 02:59:42;;;;;;;0.50;0.50;;;6.00;99.90;;;;;;5082793;28;20054;-66
2021/12/01 03:02:08;;;;;;;0.35;0.35;;;6.50;99.90;;;;;;5091814;28;20024;-66
2021/12/01 03:04:35;;;;;;;0.50;0.50;;;6.30;99.90;;;;;;5090751;28;20027;-67
2021/12/01 03:07:02;;;;;;;0.40;0.40;;;5.70;99.90;;;;;;5089775;28;20024;-66
2021/12/01 03:09:29;;;;;;;0.40;0.40;;;;;;;;;;5091516;28;20020;-67
2021/12/01 03:11:54;;;;;;;0.50;0.50;;;5.90;99.90;;;;;;5071118;28;20819;-66
2021/12/01 03:14:20;;;;;;;0.40;0.40;;;5.20;99.90;;;;;;5072630;28;20051;-66
2021/12/01 03:16:51;;;;;;;0.60;0.60;;;5.40;99.90;;;;;;5091488;28;20532;-66
2021/12/01 03:19:17;;;;;;;0.45;0.45;;;;;;;;;;5089644;28;20032;-66
2021/12/01 03:21:43;;;;;;;0.40;0.40;;;5.70;99.90;;;;;;5091365;28;20028;-66
2021/12/01 03:24:10;;;;;;;0.50;0.50;;;5.50;99.90;;;;;;5072999;28;20115;-66
2021/12/01 03:26:37;;;;;;;0.40;0.40;;;5.90;99.90;;;;;;5071110;28;20035;-66
2021/12/01 03:29:05;;;;;;;0.40;0.40;;;5.70;99.90;;;;;;5090953;28;20473;-66
2021/12/01 03:31:31;;;;;;;1.40;0.50;;;6.00;99.90;;;;;;5068941;22;20431;-70
2021/12/01 03:33:56;;;;;;;0.50;0.50;;;6.30;99.90;;;;;;5030744;28;20025;-71
2021/12/01 03:36:22;;;;;;;2.63;0.50;;;6.20;99.90;;;;;;5030574;28;20071;-71
2021/12/01 03:38:48;;;;;;;0.50;0.50;;;5.70;99.90;;;;;;5026734;28;20036;-71
2021/12/01 03:41:14;;;;;;;0.40;0.40;;;6.30;99.90;;;;;;5031025;28;20030;-71
2021/12/01 03:43:40;;;;;;;1.20;0.80;;;5.20;99.90;;;;;;5030882;28;20159;-71
2021/12/01 03:46:06;;;;;;;0.50;0.50;;;5.80;99.90;;;;;;5029037;28;20029;-70
2021/12/01 03:48:32;;;;;;;0.50;0.50;;;5.60;99.90;;;;;;5030594;28;20026;-71
2021/12/01 03:50:58;;;;;;;0.52;0.52;;;6.00;99.90;;;;;;5030773;28;20045;-70
2021/12/01 03:53:24;;;;;;;0.50;0.50;;;6.10;99.90;;;;;;5026429;28;20103;-69
2021/12/01 03:55:51;;;;;;;0.60;0.60;;;6.40;99.90;;;;;;5030328;28;20391;-70
2021/12/01 03:58:16;;;;;;;1.10;0.60;;;6.40;99.90;;;;;;5029889;28;20032;-70
2021/12/01 04:00:42;;;;;;;0.57;0.57;;;5.90;99.90;;;;;;5033926;28;20025;-70
2021/12/01 04:03:08;;;;;;;0.65;0.65;;;5.60;99.90;;;;;;5050519;28;20039;-70
2021/12/01 04:05:34;;;;;;;2.05;0.60;;;6.10;99.90;;;;;;5034857;28;20034;-70
2021/12/01 04:08:01;;;;;;;0.57;0.57;;;6.10;99.90;;;;;;5030717;28;20483;-70
2021/12/01 04:10:28;;;;;;;0.50;0.50;;;5.60;99.90;;;;;;5030861;28;20026;-71
2021/12/01 04:12:54;;;;;;;0.60;0.60;;;5.90;99.90;;;;;;5029908;28;20037;-70
2021/12/01 04:15:20;;;;;;;0.40;0.40;;;6.20;99.90;;;;;;5030268;28;20029;-71
2021/12/01 04:17:47;;;;;;;1.02;0.50;;;6.30;99.90;;;;;;5026550;28;20050;-70
2021/12/01 04:20:16;;;;;;;0.50;0.50;;;5.70;99.90;;;;;;5030756;28;20127;-70
2021/12/01 04:22:43;;;;;;;0.60;0.60;;;8.00;99.90;;;;;;5029352;28;20432;-70
2021/12/01 04:25:10;;;;;;;0.60;0.60;;;6.40;99.90;;;;;;5029718;28;20022;-70
2021/12/01 04:27:36;;;;;;;0.60;0.60;;;6.10;99.90;;;;;;5030407;28;20040;-70
2021/12/01 04:30:04;;;;;;;0.47;0.47;;;5.90;99.90;;;;;;5030478;28;20026;-69
2021/12/01 04:32:30;;;;;;;0.60;0.60;;;6.90;99.90;;;;;;5009060;28;20025;-70
2021/12/01 04:34:57;;;;;;;1.65;0.43;;;6.20;99.90;;;;;;5030922;28;20028;-71
2021/12/01 04:37:24;;;;;;;0.75;0.60;;;6.40;99.90;;;;;;5030537;28;20029;-69
2021/12/01 04:39:50;;;;;;;0.50;0.50;;;6.30;99.90;;;;;;5030735;28;20026;-70
2021/12/01 04:42:16;;;;;;;1.80;0.63;;;6.20;99.90;;;;;;5030458;28;20033;-71
2021/12/01 04:44:42;;;;;;;0.73;0.40;;;6.00;99.90;;;;;;5025685;28;20029;-70
2021/12/01 04:47:12;;;;;;;0.70;0.70;;;;;;;;;;5030190;28;20026;-69
2021/12/01 04:49:39;;;;;;;0.65;0.60;;;6.70;99.90;;;;;;5030625;28;20028;-69
2021/12/01 04:52:06;;;;;;;0.50;0.50;;;6.70;99.90;;;;;;5011684;28;20112;-68
2021/12/01 04:54:33;;;;;;;1.40;0.60;;;6.40;99.90;;;;;;5029817;28;20028;-70
2021/12/01 04:56:59;;;;;;;1.33;0.70;;;;;;;;;;5032538;28;20013;-69
2021/12/01 04:59:25;;;;;;;0.60;0.60;;;6.90;99.90;;;;;;5030032;28;20033;-69
2021/12/01 05:01:53;;;;;;;0.40;0.40;;;6.50;99.90;;;;;;5046784;28;20033;-70
2021/12/01 05:04:20;;;;;;;0.50;0.50;;;6.70;99.90;;;;;;5030910;28;20444;-69
2021/12/01 05:06:46;;;;;;;0.75;0.60;;;;;;;;;;5034374;28;20438;-70
2021/12/01 05:09:12;;;;;;;0.73;0.60;;;;;;;;;;5034298;28;20483;-69
2021/12/01 05:11:38;;;;;;;2.17;0.70;;;7.40;99.90;;;;;;5030830;28;20033;-71
2021/12/01 05:14:04;;;;;;;0.63;0.63;;;7.00;99.90;;;;;;5033274;28;20112;-70
2021/12/01 05:16:31;;;;;;;0.70;0.70;;;6.40;99.90;;;;;;5032899;28;20025;-71
2021/12/01 05:18:57;;;;;;;0.50;0.50;;;6.70;99.90;;;;;;5032683;28;20032;-69
2021/12/01 05:21:22;;;;;;;0.80;0.65;;;6.60;99.90;;;;;;5033651;28;20406;-71
2021/12/01 05:23:48;;;;;;;2.85;0.70;;;6.50;99.90;;;;;;5032515;28;20033;-71
2021/12/01 05:26:14;;;;;;;0.30;0.30;;;6.80;99.90;;;;;;5020126;28;20037;-73
2021/12/01 05:28:40;;;;;;;0.70;0.43;;;7.60;99.90;;;;;;5025083;28;20030;-73
2021/12/01 05:31:07;;;;;;;0.60;0.60;;;6.80;99.90;;;;;;5027675;28;20033;-73
2021/12/01 05:33:34;;;;;;;0.63;0.63;;;7.10;99.90;;;;;;5032139;28;20018;-74
2021/12/01 05:35:59;;;;;;;0.60;0.52;;;6.50;99.90;;;;;;5027011;28;20523;-74
2021/12/01 05:38:25;;;;;;;1.85;0.82;;;7.00;99.90;;;;;;5028482;28;20113;-73
2021/12/01 05:40:51;;;;;;;0.40;0.40;;;6.80;99.90;;;;;;5025192;28;20029;-73
2021/12/01 05:43:18;;;;;;;0.60;0.60;;;7.50;99.90;;;;;;5033126;28;20067;-73
2021/12/01 05:45:45;;;;;;;0.50;0.50;;;6.90;99.90;;;;;;5031705;28;20030;-73
2021/12/01 05:48:11;;;;;;;0.57;0.57;;;6.80;99.90;;;;;;5032853;28;20037;-74
2021/12/01 05:50:37;;;;;;;0.45;0.45;;;7.10;99.90;;;;;;5028862;28;20037;-73
2021/12/01 05:53:03;;;;;;;1.08;0.60;;;7.10;99.90;;;;;;5033202;28;20021;-73
2021/12/01 05:55:29;;;;;;;0.50;0.50;;;7.10;99.90;;;;;;5032579;28;20022;-74
2021/12/01 05:57:55;;;;;;;0.88;0.50;;;7.70;99.90;;;;;;5031932;28;20024;-71
2021/12/01 06:00:21;;;;;;;0.60;0.60;;;7.70;99.90;;;;;;5034206;28;20045;-71
2021/12/01 06:02:50;;;;;;;0.40;0.40;;;7.00;99.90;;;;;;5052524;28;20028;-71
2021/12/01 06:05:18;;;;;;;0.75;0.55;;;7.60;99.90;;;;;;5032720;28;20029;-71
2021/12/01 06:07:44;;;;;;;0.80;0.57;;;7.10;99.90;;;;;;5031753;28;20033;-71
2021/12/01 06:10:10;;;;;;;4.15;0.77;;;6.90;99.90;;;;;;5032876;28;20036;-71
2021/12/01 06:12:39;;;;;;;0.95;0.70;;;7.20;99.90;;;;;;5033853;28;20045;-71
2021/12/01 06:15:07;;;;;;;0.95;0.50;;;7.30;99.90;;;;;;5033624;28;20029;-71
2021/12/01 06:17:33;;;;;;;1.02;0.40;;;7.40;99.90;;;;;;5028002;28;20033;-71
2021/12/01 06:19:59;;;;;;;0.32;0.32;;;7.30;99.90;;;;;;5032721;28;20038;-75
2021/12/01 06:22:24;;;;;;;0.85;0.85;;;7.40;99.90;;;;;;5032130;28;20028;-75
2021/12/01 06:24:50;;;;;;;0.52;0.43;;;7.50;99.90;;;;;;5030961;28;20026;-75
2021/12/01 06:27:16;;;;;;;1.33;0.60;;;7.60;99.90;;;;;;5032294;28;20068;-75
2021/12/01 06:29:41;;;;;;;0.63;0.60;;;7.50;99.90;;;;;;5032023;28;20483;-73
2021/12/01 06:32:07;;;;;;;1.13;0.50;;;7.80;99.90;;;;;;5029112;28;20569;-74
2021/12/01 06:34:33;;;;;;;0.82;0.40;;;7.30;99.90;;;;;;5031968;28;20357;-75
2021/12/01 06:36:58;;;;;;;3.88;0.60;;;7.60;99.90;;;;;;5031443;28;20025;-74
2021/12/01 06:39:24;;;;;;;0.55;0.52;;;7.50;99.90;;;;;;5032119;28;20025;-74
2021/12/01 06:41:50;;;;;;;0.40;0.40;;;7.60;99.90;;;;;;5032599;28;20057;-73
2021/12/01 06:44:16;;;;;;;0.50;0.50;;;7.40;99.90;;;;;;5027369;28;20060;-73
2021/12/01 06:46:41;;;;;;;0.55;0.55;;;7.40;99.90;;;;;;5031595;28;20128;-73
2021/12/01 06:49:07;;;;;;;0.40;0.40;;;7.60;99.90;;;;;;5031806;28;20033;-75
2021/12/01 06:51:33;;;;;;;1.10;0.93;;;7.60;99.90;;;;;;5031805;28;20030;-75
2021/12/01 06:53:58;;;;;;;0.85;0.60;;;7.40;99.90;;;;;;5030987;28;20013;-68
2021/12/01 06:56:24;;;;;;;1.35;0.60;;;7.50;99.90;;;;;;5026887;28;20033;-71
2021/12/01 06:58:50;;;;;;;0.55;0.55;;;7.60;99.90;;;;;;5031713;28;20487;-70
2021/12/01 07:01:16;;;;;;;0.60;0.60;;;7.50;99.90;;;;;;5024607;28;20480;-68
2021/12/01 07:03:42;;;;;;;3.47;0.75;;;7.50;99.90;;;;;;5030219;28;20125;-67
2021/12/01 07:06:08;;;;;;;0.60;0.60;;;7.50;99.90;;;;;;5026581;28;20048;-71
2021/12/01 07:08:35;;;;;;;0.70;0.70;;;7.60;99.90;;;;;;5029409;28;20505;-71
2021/12/01 07:11:03;;;;;;;0.82;0.65;;;7.40;99.90;;;;;;5035749;28;20029;-71
2021/12/01 07:13:35;;;;;;;1.02;0.77;;;7.60;99.90;;;;;;5032555;28;20548;-71
2021/12/01 07:16:02;;;;;;;1.95;0.50;;;7.50;99.90;;;;;;5013689;28;20068;-71
2021/12/01 07:18:28;;;;;;;0.60;0.55;;;7.50;99.90;;;;;;5033229;28;20021;-71
2021/12/01 07:20:54;;;;;;;4.50;0.60;;;7.60;99.90;;;;;;5029358;28;20045;-70
2021/12/01 07:23:19;;;;;;;0.43;0.43;;;7.60;99.90;;;;;;5031922;28;20044;-71
2021/12/01 07:25:45;;;;;;;4.80;0.85;;;7.50;99.90;;;;;;5033362;28;20026;-71
2021/12/01 07:28:11;;;;;;;1.23;0.55;;;7.40;99.90;;;;;;5032872;28;20051;-71
2021/12/01 07:30:39;;;;;;;1.02;0.60;;;7.50;99.90;;;;;;5036767;28;20037;-71
2021/12/01 07:33:06;;;;;;;0.47;0.47;;;7.50;99.90;;;;;;5053229;28;20020;-71
2021/12/01 07:35:31;;;;;;;2.22;0.60;;;8.20;99.90;;;;;;5030380;28;20041;-70
2021/12/01 07:37:57;;;;;;;0.70;0.68;;;9.30;99.90;;;;;;5032773;28;20087;-73
2021/12/01 07:40:23;;;;;;;2.95;0.55;;;10.30;99.90;;;;;;5032946;28;20029;-72
2021/12/01 07:42:49;;;;;;;0.50;0.50;;;10.10;99.90;;;;;;5032618;28;20029;-70
2021/12/01 07:45:15;;;;;;;0.50;0.47;;;9.40;99.90;;;;;;5030805;28;20028;-70
2021/12/01 07:47:41;;;;;;;0.40;0.40;;;9.80;99.90;;;;;;5026650;28;20029;-69
2021/12/01 07:50:07;;;;;;;0.45;0.40;;;9.60;99.90;;;;;;5031429;28;20030;-71
2021/12/01 07:52:35;;;;;;;0.60;0.60;;;9.50;99.90;;;;;;5029111;28;20033;-71
2021/12/01 07:55:01;;;;;;;0.95;0.65;;;9.60;99.90;;;;;;5030412;28;20071;-71
2021/12/01 07:57:26;;;;;;;0.47;0.47;;;9.60;99.90;;;;;;5030719;28;20033;-69
2021/12/01 07:59:52;;;;;;;1.00;0.90;;;9.50;99.90;;;;;;5030273;28;20026;-71
2021/12/01 08:02:18;;;;;;;0.68;0.50;;;9.80;99.90;;;;;;5047196;28;20032;-72
2021/12/01 08:04:43;;;;;;;2.17;0.50;;;10.90;99.90;;;;;;5042842;28;20100;-71
2021/12/01 08:07:09;;;;;;;3.17;0.50;;;11.20;99.90;;;;;;5030718;28;20017;-72
2021/12/01 08:09:34;;;;;;;0.55;0.50;;;11.20;99.90;;;;;;5031029;28;20379;-72
2021/12/01 08:12:01;;;;;;;0.30;0.30;;;11.10;99.90;;;;;;5026388;28;20084;-73
2021/12/01 08:14:26;;;;;;;0.95;0.50;;;11.00;99.90;;;;;;5030330;28;20438;-69
2021/12/01 08:16:52;;;;;;;1.35;0.32;;;11.90;99.90;;;;;;5029487;28;20025;-73
2021/12/01 08:19:19;;;;;;;0.65;0.45;;;12.20;99.90;;;;;;5030788;28;20022;-72
2021/12/01 08:21:47;;;;;;;0.40;0.40;;;12.00;99.90;;;;;;5012632;28;20025;-70
2021/12/01 08:24:14;;;;;;;0.55;0.40;;;11.60;99.90;;;;;;5029896;28;20171;-71
2021/12/01 08:26:41;;;;;;;0.73;0.60;;;11.10;99.90;;;;;;5012091;28;20184;-72
2021/12/01 08:29:07;;;;;;;0.55;0.55;;;10.40;99.90;;;;;;5029564;28;20037;-71
2021/12/01 08:31:33;;;;;;;0.63;0.50;;;9.80;99.90;;;;;;5040264;28;20124;-71
2021/12/01 08:33:58;;;;;;;0.70;0.50;;;9.60;99.90;;;;;;5054289;28;20061;-71
2021/12/01 08:36:24;;;;;;;0.57;0.43;;;9.50;99.90;;;;;;5046893;28;20041;-73
2021/12/01 08:38:50;;;;;;;2.13;0.52;;;9.70;99.90;;;;;;5034581;28;20025;-71
2021/12/01 08:41:16;;;;;;;0.60;0.50;;;9.60;99.90;;;;;;5034479;28;20032;-72
2021/12/01 08:43:42;;;;;;;0.85;0.50;;;10.10;99.90;;;;;;5029976;28;20029;-72
2021/12/01 08:46:08;;;;;;;2.25;0.45;;;11.00;99.90;;;;;;5033627;28;20100;-72
2021/12/01 08:48:35;;;;;;;1.10;0.75;;;10.70;99.90;;;;;;5032895;28;20054;-72
2021/12/01 08:51:02;;;;;;;0.60;0.30;;;11.20;99.90;;;;;;5034265;28;20021;-72
2021/12/01 08:53:30;;;;;;;1.05;0.40;;;11.60;99.90;;;;;;5034032;28;20025;-73
2021/12/01 08:55:57;;;;;;;2.08;0.40;;;12.10;99.90;;;;;;5030792;28;20022;-72
2021/12/01 08:58:23;;;;;;;0.30;0.30;;;12.00;99.90;;;;;;5034205;28;20167;-71
2021/12/01 09:00:49;;;;;;;0.77;0.50;;;11.80;99.90;;;;;;5038674;28;20499;-71
2021/12/01 09:03:17;;;;;;;2.33;0.50;;;11.10;99.90;;;;;;5033760;28;20035;-71
2021/12/01 09:05:44;;;;;;;0.52;0.50;;;10.50;99.90;;;;;;5033694;28;20029;-72
2021/12/01 09:08:11;;;;;;;9.35;7.00;;;10.30;99.90;;;;;;5032818;28;20030;-72
2021/12/01 09:10:37;;;;;;;0.50;0.50;;;10.20;99.90;;;;;;5033841;28;20113;-73
2021/12/01 09:13:04;;;;;;;0.30;0.30;;;10.10;99.90;;;;;;5016252;28;20108;-73
2021/12/01 09:15:31;;;;;;;1.30;0.40;;;10.20;99.90;;;;;;5032335;28;20115;-71
2021/12/01 09:17:57;;;;;;;0.40;0.40;;;10.80;99.90;;;;;;5033462;28;20024;-71
2021/12/01 09:20:23;;;;;;;0.47;0.47;;;10.80;99.90;;;;;;5033465;28;20452;-70
2021/12/01 09:22:50;;;;;;;0.75;0.40;;;10.50;99.90;;;;;;5030232;28;20029;-71
2021/12/01 09:25:16;;;;;;;5.68;3.35;;;10.00;99.90;;;;;;5032969;28;20442;-69
2021/12/01 09:27:44;;;;;;;0.30;0.30;;;9.60;99.90;;;;;;5032538;28;20561;-71
2021/12/01 09:30:10;;;;;;;1.63;0.70;;;9.80;99.90;;;;;;5033097;28;20064;-71
2021/12/01 09:32:37;;;;;;;1.83;0.50;;;9.90;99.90;;;;;;5050963;28;20078;-72
2021/12/01 09:35:05;;;;;;;4.38;0.55;;;10.30;99.90;;;;;;5037739;28;20063;-72
2021/12/01 09:37:30;;;;;;;1.80;0.50;;;9.40;99.90;;;;;;5057876;22;20538;-65
2021/12/01 09:39:56;;;;;;;1.10;1.02;;;9.70;99.90;;;;;;5059692;28;20487;-66
2021/12/01 09:42:22;;;;;;;0.57;0.50;;;9.70;99.90;;;;;;5052005;28;20025;-65
2021/12/01 09:44:50;;;;;;;2.28;1.77;;;9.80;99.90;;;;;;5052008;28;20021;-65
2021/12/01 09:47:19;;;;;;;3.30;0.40;;;9.80;99.90;;;;;;5056753;28;20471;-65
2021/12/01 09:49:46;;;;;;;1.77;0.60;;;9.90;99.90;;;;;;5053828;28;20033;-65
2021/12/01 09:52:12;;;;;;;2.13;1.75;;;9.80;99.90;;;;;;5052904;28;20036;-65
2021/12/01 09:54:39;;;;;;;1.55;1.27;;;10.10;99.90;;;;;;5051406;28;20025;-65
2021/12/01 09:57:06;;;;;;;5.20;3.05;;;10.00;99.90;;;;;;5052914;28;20032;-65
2021/12/01 09:59:32;;;;;;;2.30;1.00;;;10.60;99.90;;;;;;5048338;28;20025;-65
2021/12/01 10:01:58;;;;;;;4.68;2.20;;;11.00;99.90;;;;;;5052889;28;20036;-65
2021/12/01 10:04:25;;;;;;;1.35;1.25;;;11.10;99.90;;;;;;5052395;28;20399;-66
2021/12/01 10:06:51;;;;;;;1.17;0.75;;;11.00;99.90;;;;;;5051581;28;20021;-65
2021/12/01 10:09:19;;;;;;;14.05;9.40;;;11.10;99.90;;;;;;5052266;28;20036;-65
2021/12/01 10:11:45;;;;;;;3.45;2.30;;;10.60;99.90;;;;;;5034544;28;20037;-65
2021/12/01 10:14:18;;;;;;;3.15;1.00;;;10.50;99.90;;;;;;5051964;28;20022;-66
2021/12/01 10:16:47;;;;;;;1.52;1.00;;;10.30;99.90;;;;;;5052171;28;20505;-66
2021/12/01 10:19:15;;;;;;;0.98;0.50;;;10.10;99.90;;;;;;5051695;28;20021;-65
2021/12/01 10:21:44;;;;;;;1.17;0.70;;;10.30;99.90;;;;;;5051568;28;20267;-65
2021/12/01 10:24:34;;;;;;;0.90;0.90;;;10.40;99.90;;;;;;5048890;28;20029;-66
2021/12/01 10:27:04;;;;;;;1.27;0.55;;;10.50;99.90;;;;;;5048496;28;20037;-67
2021/12/01 10:29:32;;;;;;;0.70;0.70;;;10.00;99.90;;;;;;5052553;28;20033;-66
2021/12/01 10:32:15;;;;;;;0.60;0.60;;;9.90;99.90;;;;;;5051376;28;20080;-66
2021/12/01 10:34:46;;;;;;;4.40;0.57;;;10.00;99.90;;;;;;5051375;28;20021;-69
2021/12/01 10:40:12;;;;;;;0.40;0.40;;;10.50;99.90;;;;;;5051667;28;20033;-76
2021/12/01 10:43:00;;;;;;;1.30;0.57;;;10.20;99.90;;;;;;5052997;28;20475;-74
2021/12/01 10:45:31;;;;;;;1.70;0.50;;;10.00;99.90;;;;;;5054452;28;20103;-73
2021/12/01 10:47:58;;;;;;;0.70;0.55;;;9.90;99.90;;;;;;5067738;28;20167;-71
2021/12/01 10:50:27;;;;;;;9.20;7.32;;;10.10;99.90;;;;;;5070819;28;20040;-71
2021/12/01 10:53:01;;;;;;;0.50;0.50;;;10.30;99.90;;;;;;5038178;28;20025;-67
2021/12/01 10:55:28;;;;;;;1.90;0.60;;;9.90;99.90;;;;;;5050920;28;20024;-71
2021/12/01 10:58:05;;;;;;;10.70;6.40;;;9.90;99.90;;;;;;5050843;28;20051;-71
2021/12/01 11:00:41;;;;;;;1.60;1.42;;;10.00;99.90;;;;;;5052146;28;20553;-70
2021/12/01 11:03:12;;;;;;;5.07;4.63;;;10.20;99.90;;;;;;5052143;28;20029;-70
2021/12/01 11:05:39;;;;;;;8.65;7.78;;;10.00;99.90;;;;;;5035828;28;20061;-70
2021/12/01 11:08:27;;;;;;;2.08;0.73;;;10.40;99.90;;;;;;5051078;28;20104;-67
2021/12/01 11:11:04;;;;;;;1.17;0.60;;;10.40;99.90;;;;;;5051130;28;20025;-77
2021/12/01 11:13:30;;;;;;;0.80;0.80;;;10.30;99.90;;;;;;5051926;28;20024;-75
2021/12/01 11:16:02;;;;;;;5.40;3.90;;;10.70;99.90;;;;;;5051061;28;20690;-74
2021/12/01 11:18:31;;;;;;;0.82;0.80;;;10.80;99.90;;;;;;5047117;28;20434;-74
2021/12/01 11:21:24;;;;;;;0.95;0.80;;;11.00;99.90;;;;;;5051917;28;20033;-74
2021/12/01 11:23:53;;;;;;;0.82;0.70;;;11.90;99.90;;;;;;5051324;28;20078;-72
2021/12/01 11:26:24;;;;;;;1.05;0.50;;;12.10;99.90;;;;;;5052682;28;20052;-75
2021/12/01 11:28:51;;;;;;;1.25;0.77;;;11.40;99.90;;;;;;5036169;28;20028;-73
2021/12/01 11:31:21;;;;;;;1.52;0.98;;;11.40;99.90;;;;;;5066458;28;20539;-73
2021/12/01 11:33:49;;;;;;;0.77;0.77;;;11.10;99.90;;;;;;5048812;28;20029;-73
2021/12/01 11:36:20;;;;;;;0.70;0.70;;;11.90;99.90;;;;;;5050942;28;20530;-73
2021/12/01 11:38:59;;;;;;;0.80;0.80;;;11.60;99.90;;;;;;5050844;28;20483;-73
2021/12/01 11:41:28;;;;;;;0.50;0.50;;;11.40;99.90;;;;;;5052464;28;20108;-67
2021/12/01 11:43:55;;;;;;;0.50;0.50;;;11.70;99.90;;;;;;5046430;28;20029;-67
2021/12/01 11:46:20;;;;;;;1.60;1.50;;;11.40;99.90;;;;;;5051212;28;20024;-67
2021/12/01 11:48:48;;;;;;;0.80;0.77;;;11.20;99.90;;;;;;5051559;28;20056;-67
2021/12/01 11:51:27;;;;;;;0.63;0.50;;;11.30;99.90;;;;;;5050875;28;20504;-67
2021/12/01 11:53:57;;;;;;;0.43;0.43;;;11.60;99.90;;;;;;5046875;28;20033;-67
2021/12/01 11:56:28;;;;;;;2.55;0.70;;;11.30;99.90;;;;;;5047884;28;20025;-67
2021/12/01 11:59:12;;;;;;;1.15;1.02;;;10.40;99.90;;;;;;5051480;28;20107;-67
2021/12/01 12:01:40;;;;;;;1.10;0.60;;;10.70;99.90;;;;;;5052110;28;20107;-68
2021/12/01 12:04:06;;;;;;;1.17;0.70;;;10.80;99.90;;;;;;5033398;28;20489;-68
2021/12/01 12:06:43;;;;;;;0.73;0.73;;;11.20;99.90;;;;;;5029753;28;20156;-68
2021/12/01 12:09:11;;;;;;;0.55;0.55;;;11.30;99.90;;;;;;5038216;28;20028;-69
2021/12/01 12:11:49;;;;;;;0.80;0.80;;;11.30;99.90;;;;;;5030997;28;20025;-69
2021/12/01 12:14:14;;;;;;;0.50;0.50;;;11.00;99.90;;;;;;5032050;28;20093;-70
2021/12/01 12:16:42;;;;;;;0.50;0.50;;;11.20;99.90;;;;;;5030441;28;20199;-69
2021/12/01 12:19:08;;;;;;;0.60;0.60;;;11.10;99.90;;;;;;5031414;28;20021;-68
2021/12/01 12:24:06;;;;;;;0.52;0.52;;;11.00;99.90;;;;;;5051750;28;20451;-70
2021/12/01 12:26:38;;;;;;;2.00;0.85;;;11.30;99.90;;;;;;5050500;28;20025;-68
2021/12/01 12:29:15;;;;;;;1.23;0.52;;;11.00;99.90;;;;;;5042046;28;20017;-68
2021/12/01 12:31:43;;;;;;;0.77;0.77;;;10.70;99.90;;;;;;5013589;28;20022;-67
2021/12/01 12:34:19;;;;;;;0.55;0.55;;;10.80;99.90;;;;;;5032935;28;20022;-69
2021/12/01 12:36:53;;;;;;;0.50;0.50;;;10.80;99.90;;;;;;5047529;28;20021;-65
2021/12/01 12:39:31;;;;;;;1.63;0.80;;;12.20;99.90;;;;;;5030774;28;20056;-65
2021/12/01 12:42:08;;;;;;;0.73;0.70;;;10.50;99.90;;;;;;5043042;28;20032;-71
2021/12/01 12:44:38;;;;;;;0.77;0.70;;;10.50;99.90;;;;;;5054819;28;20108;-69
2021/12/01 12:47:10;;;;;;;0.50;0.50;;;10.40;99.90;;;;;;5036519;28;20029;-71
2021/12/01 12:50:08;;;;;;;0.60;0.60;;;10.40;99.90;;;;;;5052072;28;20029;-71
2021/12/01 12:52:48;;;;;;;1.27;0.63;;;10.20;99.90;;;;;;5051616;28;20044;-70
2021/12/01 12:55:22;;;;;;;1.58;0.50;;;10.10;99.90;;;;;;5050603;28;20025;-69
2021/12/01 12:57:58;;;;;;;1.60;0.85;;;10.00;99.90;;;;;;5051740;28;20364;-71
2021/12/01 13:00:26;;;;;;;0.85;0.80;;;10.00;99.90;;;;;;5051395;28;20028;-71
2021/12/01 13:02:53;;;;;;;1.30;0.80;;;9.90;99.90;;;;;;5051171;28;20060;-69
2021/12/01 13:05:38;;;;;;;1.17;0.60;;;9.90;99.90;;;;;;5051416;28;20029;-70
2021/12/01 13:08:35;;;;;;;0.90;0.85;;;10.00;99.90;;;;;;5050276;28;20032;-69
2021/12/01 13:11:03;;;;;;;1.17;0.90;;;9.40;99.90;;;;;;5050277;28;20029;-66
2021/12/01 13:13:37;;;;;;;0.80;0.77;;;9.90;99.90;;;;;;5043931;28;20029;-66